sensor_id;sensor_type;location;lat;lon;timestamp;pressure;altitude;pressure_sealevel;temperature;humidity
63731;BME280;49747;51.334;6.830;2023-01-23T00:01:16;102843.44;;;8.29;67.57
63731;BME280;49747;51.334;6.830;2023-01-23T00:03:44;102847.06;;;8.26;67.22
63731;BME280;49747;51.334;6.830;2023-01-23T00:06:13;102848.72;;;8.29;66.73
63731;BME280;49747;51.334;6.830;2023-01-23T00:08:41;102854.03;;;8.29;66.52
63731;BME280;49747;51.334;6.830;2023-01-23T00:11:11;102843.25;;;8.35;67.10
63731;BME280;49747;51.334;6.830;2023-01-23T00:13:39;102840.56;;;8.38;67.12
63731;BME280;49747;51.334;6.830;2023-01-23T00:16:10;102846.66;;;8.40;66.99
63731;BME280;49747;51.334;6.830;2023-01-23T00:18:38;102844.97;;;8.37;66.90
63731;BME280;49747;51.334;6.830;2023-01-23T00:21:07;102849.19;;;8.45;66.86
63731;BME280;49747;51.334;6.830;2023-01-23T00:23:34;102845.59;;;8.47;66.66
63731;BME280;49747;51.334;6.830;2023-01-23T00:26:05;102847.38;;;8.47;66.46
63731;BME280;49747;51.334;6.830;2023-01-23T00:28:31;102844.75;;;8.45;66.65
63731;BME280;49747;51.334;6.830;2023-01-23T00:31:15;102831.38;;;8.50;66.30
63731;BME280;49747;51.334;6.830;2023-01-23T00:33:43;102849.19;;;8.45;66.02
63731;BME280;49747;51.334;6.830;2023-01-23T00:36:10;102839.44;;;8.45;66.18
63731;BME280;49747;51.334;6.830;2023-01-23T00:38:38;102842.84;;;8.50;66.25
63731;BME280;49747;51.334;6.830;2023-01-23T00:41:04;102837.59;;;8.49;66.32
63731;BME280;49747;51.334;6.830;2023-01-23T00:43:31;102835.78;;;8.51;66.26
63731;BME280;49747;51.334;6.830;2023-01-23T00:45:58;102840.06;;;8.55;66.48
63731;BME280;49747;51.334;6.830;2023-01-23T00:48:25;102833.06;;;8.52;66.04
63731;BME280;49747;51.334;6.830;2023-01-23T00:50:52;102839.06;;;8.59;66.27
63731;BME280;49747;51.334;6.830;2023-01-23T00:53:19;102838.19;;;8.58;66.08
63731;BME280;49747;51.334;6.830;2023-01-23T00:55:45;102835.41;;;8.63;66.47
63731;BME280;49747;51.334;6.830;2023-01-23T00:58:12;102834.63;;;8.59;66.33
63731;BME280;49747;51.334;6.830;2023-01-23T01:00:39;102850.38;;;8.64;65.98
63731;BME280;49747;51.334;6.830;2023-01-23T01:03:06;102849.38;;;8.68;66.53
63731;BME280;49747;51.334;6.830;2023-01-23T01:05:34;102849.50;;;8.63;65.81
63731;BME280;49747;51.334;6.830;2023-01-23T01:08:02;102850.38;;;8.64;65.61
63731;BME280;49747;51.334;6.830;2023-01-23T01:10:29;102851.28;;;8.63;65.85
63731;BME280;49747;51.334;6.830;2023-01-23T01:12:59;102858.09;;;8.72;65.52
63731;BME280;49747;51.334;6.830;2023-01-23T01:15:26;102860.75;;;8.72;65.53
63731;BME280;49747;51.334;6.830;2023-01-23T01:17:55;102851.94;;;8.71;65.33
63731;BME280;49747;51.334;6.830;2023-01-23T01:20:21;102864.97;;;8.77;65.46
63731;BME280;49747;51.334;6.830;2023-01-23T01:22:49;102861.44;;;8.78;65.44
63731;BME280;49747;51.334;6.830;2023-01-23T01:25:16;102856.28;;;8.74;65.46
63731;BME280;49747;51.334;6.830;2023-01-23T01:27:44;102869.25;;;8.81;65.49
63731;BME280;49747;51.334;6.830;2023-01-23T01:30:12;102871.81;;;8.84;65.71
63731;BME280;49747;51.334;6.830;2023-01-23T01:32:40;102875.31;;;8.86;65.53
63731;BME280;49747;51.334;6.830;2023-01-23T01:35:07;102869.88;;;8.89;65.70
63731;BME280;49747;51.334;6.830;2023-01-23T01:37:38;102873.44;;;8.90;65.38
63731;BME280;49747;51.334;6.830;2023-01-23T01:40:07;102869.78;;;8.94;65.96
63731;BME280;49747;51.334;6.830;2023-01-23T01:42:42;102868.91;;;8.94;65.70
63731;BME280;49747;51.334;6.830;2023-01-23T01:48:14;102866.88;;;9.02;67.28
63731;BME280;49747;51.334;6.830;2023-01-23T01:50:41;102869.63;;;8.99;67.14
63731;BME280;49747;51.334;6.830;2023-01-23T01:53:08;102868.69;;;9.00;67.06
63731;BME280;49747;51.334;6.830;2023-01-23T01:55:37;102873.13;;;8.99;66.04
63731;BME280;49747;51.334;6.830;2023-01-23T01:58:04;102879.31;;;9.00;65.73
63731;BME280;49747;51.334;6.830;2023-01-23T02:00:31;102884.59;;;9.00;65.64
63731;BME280;49747;51.334;6.830;2023-01-23T02:03:00;102887.41;;;8.95;65.15
63731;BME280;49747;51.334;6.830;2023-01-23T02:05:34;102877.59;;;8.97;65.35
63731;BME280;49747;51.334;6.830;2023-01-23T02:08:07;102883.81;;;8.98;64.70
63731;BME280;49747;51.334;6.830;2023-01-23T02:10:36;102884.66;;;8.98;64.65
63731;BME280;49747;51.334;6.830;2023-01-23T02:13:24;102895.22;;;9.00;64.80
63731;BME280;49747;51.334;6.830;2023-01-23T02:15:58;102886.47;;;8.98;64.45
63731;BME280;49747;51.334;6.830;2023-01-23T02:18:28;102883.81;;;8.98;64.88
63731;BME280;49747;51.334;6.830;2023-01-23T02:20:57;102877.66;;;8.96;64.57
63731;BME280;49747;51.334;6.830;2023-01-23T02:23:44;102895.31;;;8.97;64.91
63731;BME280;49747;51.334;6.830;2023-01-23T02:26:19;102892.81;;;8.92;64.98
63731;BME280;49747;51.334;6.830;2023-01-23T02:28:49;102893.63;;;8.94;64.93
63731;BME280;49747;51.334;6.830;2023-01-23T02:31:25;102896.28;;;8.94;65.13
63731;BME280;49747;51.334;6.830;2023-01-23T02:33:54;102892.72;;;8.95;65.00
63731;BME280;49747;51.334;6.830;2023-01-23T02:36:23;102891.84;;;8.95;64.63
63731;BME280;49747;51.334;6.830;2023-01-23T02:41:33;102890.00;;;8.97;64.89
63731;BME280;49747;51.334;6.830;2023-01-23T02:44:06;102878.59;;;8.95;64.91
63731;BME280;49747;51.334;6.830;2023-01-23T02:46:35;102879.41;;;8.97;65.20
63731;BME280;49747;51.334;6.830;2023-01-23T02:49:02;102872.38;;;8.96;65.00
63731;BME280;49747;51.334;6.830;2023-01-23T02:51:29;102855.59;;;8.95;64.30
63731;BME280;49747;51.334;6.830;2023-01-23T02:53:55;102833.69;;;8.90;64.84
63731;BME280;49747;51.334;6.830;2023-01-23T02:56:22;102850.22;;;8.97;64.70
63731;BME280;49747;51.334;6.830;2023-01-23T02:58:48;102843.16;;;8.97;64.39
63731;BME280;49747;51.334;6.830;2023-01-23T03:01:34;102833.72;;;8.88;64.19
63731;BME280;49747;51.334;6.830;2023-01-23T03:04:03;102832.69;;;8.93;63.88
63731;BME280;49747;51.334;6.830;2023-01-23T03:06:33;102840.69;;;8.91;63.98
63731;BME280;49747;51.334;6.830;2023-01-23T03:09:09;102838.91;;;8.92;63.64
63731;BME280;49747;51.334;6.830;2023-01-23T03:11:38;102841.66;;;8.88;63.70
63731;BME280;49747;51.334;6.830;2023-01-23T03:14:08;102847.88;;;8.87;64.09
63731;BME280;49747;51.334;6.830;2023-01-23T03:16:35;102848.84;;;8.85;63.69
63731;BME280;49747;51.334;6.830;2023-01-23T03:19:05;102868.22;;;8.87;64.05
63731;BME280;49747;51.334;6.830;2023-01-23T03:21:36;102876.97;;;8.89;63.57
63731;BME280;49747;51.334;6.830;2023-01-23T03:24:04;102883.19;;;8.88;64.06
63731;BME280;49747;51.334;6.830;2023-01-23T03:26:31;102883.97;;;8.92;63.97
63731;BME280;49747;51.334;6.830;2023-01-23T03:28:58;102880.47;;;8.91;63.76
63731;BME280;49747;51.334;6.830;2023-01-23T03:31:43;102891.94;;;8.92;63.97
63731;BME280;49747;51.334;6.830;2023-01-23T03:34:10;102899.88;;;8.92;63.72
63731;BME280;49747;51.334;6.830;2023-01-23T03:36:37;102894.66;;;8.90;64.26
63731;BME280;49747;51.334;6.830;2023-01-23T03:39:05;102897.31;;;8.88;64.06
63731;BME280;49747;51.334;6.830;2023-01-23T03:41:52;102902.53;;;8.92;63.75
63731;BME280;49747;51.334;6.830;2023-01-23T03:44:20;102895.50;;;8.91;63.74
63731;BME280;49747;51.334;6.830;2023-01-23T03:46:49;102887.50;;;8.92;64.01
63731;BME280;49747;51.334;6.830;2023-01-23T03:49:16;102888.66;;;8.83;63.53
63731;BME280;49747;51.334;6.830;2023-01-23T03:51:49;102894.66;;;8.88;63.48
63731;BME280;49747;51.334;6.830;2023-01-23T03:54:16;102894.66;;;8.90;63.80
63731;BME280;49747;51.334;6.830;2023-01-23T03:56:43;102901.81;;;8.86;63.79
63731;BME280;49747;51.334;6.830;2023-01-23T03:59:24;102893.00;;;8.86;63.82
63731;BME280;49747;51.334;6.830;2023-01-23T04:01:51;102905.25;;;8.90;63.52
63731;BME280;49747;51.334;6.830;2023-01-23T04:04:19;102898.19;;;8.89;63.31
63731;BME280;49747;51.334;6.830;2023-01-23T04:06:45;102905.34;;;8.85;63.22
63731;BME280;49747;51.334;6.830;2023-01-23T04:09:12;102899.19;;;8.85;63.45
63731;BME280;49747;51.334;6.830;2023-01-23T04:11:38;102899.16;;;8.86;63.10
63731;BME280;49747;51.334;6.830;2023-01-23T04:14:06;102899.16;;;8.86;63.27
63731;BME280;49747;51.334;6.830;2023-01-23T04:16:33;102899.16;;;8.86;63.59
63731;BME280;49747;51.334;6.830;2023-01-23T04:18:59;102907.22;;;8.83;63.46
63731;BME280;49747;51.334;6.830;2023-01-23T04:21:26;102904.69;;;8.79;63.66
63731;BME280;49747;51.334;6.830;2023-01-23T04:23:52;102901.97;;;8.82;63.80
63731;BME280;49747;51.334;6.830;2023-01-23T04:26:19;102901.06;;;8.81;63.82
63731;BME280;49747;51.334;6.830;2023-01-23T04:28:45;102900.03;;;8.87;64.36
63731;BME280;49747;51.334;6.830;2023-01-23T04:31:12;102894.72;;;8.87;64.12
63731;BME280;49747;51.334;6.830;2023-01-23T04:33:39;102898.16;;;8.91;64.40
63731;BME280;49747;51.334;6.830;2023-01-23T04:36:07;102901.69;;;8.91;64.16
63731;BME280;49747;51.334;6.830;2023-01-23T04:38:35;102891.09;;;8.89;64.11
63731;BME280;49747;51.334;6.830;2023-01-23T04:41:20;102888.44;;;8.89;64.34
63731;BME280;49747;51.334;6.830;2023-01-23T04:43:49;102892.03;;;8.88;64.01
63731;BME280;49747;51.334;6.830;2023-01-23T04:46:16;102891.22;;;8.86;64.29
63731;BME280;49747;51.334;6.830;2023-01-23T04:49:04;102893.72;;;8.91;64.19
63731;BME280;49747;51.334;6.830;2023-01-23T04:51:31;102883.06;;;8.93;63.94
63731;BME280;49747;51.334;6.830;2023-01-23T04:53:58;102881.34;;;8.92;64.10
63731;BME280;49747;51.334;6.830;2023-01-23T04:56:25;102871.88;;;8.83;64.47
63731;BME280;49747;51.334;6.830;2023-01-23T04:58:52;102870.81;;;8.88;64.03
63731;BME280;49747;51.334;6.830;2023-01-23T05:01:21;102866.38;;;8.89;64.03
63731;BME280;49747;51.334;6.830;2023-01-23T05:03:52;102856.91;;;8.82;64.24
63731;BME280;49747;51.334;6.830;2023-01-23T05:06:18;102871.81;;;8.86;64.14
63731;BME280;49747;51.334;6.830;2023-01-23T05:08:45;102876.22;;;8.85;64.16
63731;BME280;49747;51.334;6.830;2023-01-23T05:11:21;102883.25;;;8.86;63.87
63731;BME280;49747;51.334;6.830;2023-01-23T05:13:48;102869.25;;;8.81;63.78
63731;BME280;49747;51.334;6.830;2023-01-23T05:16:15;102878.13;;;8.80;63.95
63731;BME280;49747;51.334;6.830;2023-01-23T05:19:07;102877.84;;;7.98;66.78
63731;BME280;49747;51.334;6.830;2023-01-23T05:21:34;102885.00;;;7.60;68.05
63731;BME280;49747;51.334;6.830;2023-01-23T05:24:01;102894.03;;;7.15;69.96
63731;BME280;49747;51.334;6.830;2023-01-23T05:26:29;102897.25;;;6.89;71.51
63731;BME280;49747;51.334;6.830;2023-01-23T05:28:57;102906.16;;;6.44;73.67
63731;BME280;49747;51.334;6.830;2023-01-23T05:31:24;102902.25;;;6.18;74.75
63731;BME280;49747;51.334;6.830;2023-01-23T05:34:26;102911.94;;;5.68;76.97
63731;BME280;49747;51.334;6.830;2023-01-23T05:36:53;102911.56;;;5.89;76.86
63731;BME280;49747;51.334;6.830;2023-01-23T05:39:21;102898.78;;;5.66;77.40
63731;BME280;49747;51.334;6.830;2023-01-23T05:41:48;102909.34;;;5.65;78.01
63731;BME280;49747;51.334;6.830;2023-01-23T05:44:47;102923.88;;;5.92;77.27
63731;BME280;49747;51.334;6.830;2023-01-23T05:47:25;102921.81;;;6.06;76.04
63731;BME280;49747;51.334;6.830;2023-01-23T05:49:55;102924.78;;;5.88;76.18
63731;BME280;49747;51.334;6.830;2023-01-23T05:52:25;102924.63;;;5.44;77.78
63731;BME280;49747;51.334;6.830;2023-01-23T05:54:53;102917.66;;;5.40;78.18
63731;BME280;49747;51.334;6.830;2023-01-23T05:57:20;102926.31;;;5.49;78.22
63731;BME280;49747;51.334;6.830;2023-01-23T06:00:08;102917.72;;;5.36;78.86
63731;BME280;49747;51.334;6.830;2023-01-23T06:02:57;102910.00;;;5.24;79.29
63731;BME280;49747;51.334;6.830;2023-01-23T06:05:40;102916.00;;;5.33;79.03
63731;BME280;49747;51.334;6.830;2023-01-23T06:08:14;102929.91;;;5.44;78.55
63731;BME280;49747;51.334;6.830;2023-01-23T06:10:41;102930.28;;;5.18;80.01
63731;BME280;49747;51.334;6.830;2023-01-23T06:13:07;102929.38;;;5.21;79.05
63731;BME280;49747;51.334;6.830;2023-01-23T06:15:35;102945.78;;;5.40;78.27
63731;BME280;49747;51.334;6.830;2023-01-23T06:18:07;102935.25;;;5.38;78.27
63731;BME280;49747;51.334;6.830;2023-01-23T06:20:34;102937.81;;;5.44;78.55
63731;BME280;49747;51.334;6.830;2023-01-23T06:23:01;102930.31;;;5.17;79.56
63731;BME280;49747;51.334;6.830;2023-01-23T06:25:28;102946.91;;;5.24;79.75
63731;BME280;49747;51.334;6.830;2023-01-23T06:28:00;102943.34;;;5.28;79.35
63731;BME280;49747;51.334;6.830;2023-01-23T06:30:29;102943.44;;;5.18;79.96
63731;BME280;49747;51.334;6.830;2023-01-23T06:32:56;102958.69;;;4.97;81.63
63731;BME280;49747;51.334;6.830;2023-01-23T06:35:30;102948.72;;;5.20;81.17
63731;BME280;49747;51.334;6.830;2023-01-23T06:37:59;102961.00;;;5.23;80.32
63731;BME280;49747;51.334;6.830;2023-01-23T06:40:27;102940.22;;;4.98;81.23
63731;BME280;49747;51.334;6.830;2023-01-23T06:43:14;102961.13;;;5.12;81.66
63731;BME280;49747;51.334;6.830;2023-01-23T06:45:43;102965.31;;;5.25;81.12
63731;BME280;49747;51.334;6.830;2023-01-23T06:48:10;102972.16;;;5.38;80.42
63731;BME280;49747;51.334;6.830;2023-01-23T06:50:40;102973.81;;;5.46;80.06
63731;BME280;49747;51.334;6.830;2023-01-23T06:53:08;102982.69;;;5.38;80.65
63731;BME280;49747;51.334;6.830;2023-01-23T06:55:35;102982.16;;;5.15;82.31
63731;BME280;49747;51.334;6.830;2023-01-23T06:58:03;102988.44;;;5.05;82.05
63731;BME280;49747;51.334;6.830;2023-01-23T07:00:29;102991.19;;;4.97;82.58
63731;BME280;49747;51.334;6.830;2023-01-23T07:02:58;102995.44;;;5.06;83.04
63731;BME280;49747;51.334;6.830;2023-01-23T07:05:29;102995.72;;;4.84;84.13
63731;BME280;49747;51.334;6.830;2023-01-23T07:07:56;103009.38;;;5.14;82.78
63731;BME280;49747;51.334;6.830;2023-01-23T07:10:24;103006.56;;;5.29;81.67
63731;BME280;49747;51.334;6.830;2023-01-23T07:12:52;103012.19;;;5.03;83.15
63731;BME280;49747;51.334;6.830;2023-01-23T07:15:19;103016.16;;;5.35;81.92
63731;BME280;49747;51.334;6.830;2023-01-23T07:17:46;103013.25;;;5.53;81.16
63731;BME280;49747;51.334;6.830;2023-01-23T07:20:13;103013.50;;;5.36;81.73
63731;BME280;49747;51.334;6.830;2023-01-23T07:22:45;103010.75;;;5.42;81.30
63731;BME280;49747;51.334;6.830;2023-01-23T07:25:12;103015.56;;;5.73;80.35
63731;BME280;49747;51.334;6.830;2023-01-23T07:27:39;103025.44;;;5.60;80.77
63731;BME280;49747;51.334;6.830;2023-01-23T07:30:06;103024.75;;;5.46;80.15
63731;BME280;49747;51.334;6.830;2023-01-23T07:32:34;103029.06;;;5.53;80.56
63731;BME280;49747;51.334;6.830;2023-01-23T07:35:00;103027.94;;;5.71;79.60
63731;BME280;49747;51.334;6.830;2023-01-23T07:37:27;103039.31;;;5.75;79.54
63731;BME280;49747;51.334;6.830;2023-01-23T07:39:54;103048.38;;;5.55;79.86
63731;BME280;49747;51.334;6.830;2023-01-23T07:42:20;103047.59;;;5.49;80.52
63731;BME280;49747;51.334;6.830;2023-01-23T07:44:47;103044.16;;;5.42;80.48
63731;BME280;49747;51.334;6.830;2023-01-23T07:47:14;103053.63;;;5.57;80.00
63731;BME280;49747;51.334;6.830;2023-01-23T07:49:40;103040.25;;;5.69;79.92
63731;BME280;49747;51.334;6.830;2023-01-23T07:52:07;103045.63;;;5.63;79.63
63731;BME280;49747;51.334;6.830;2023-01-23T07:54:34;103047.47;;;5.56;79.89
63731;BME280;49747;51.334;6.830;2023-01-23T07:57:01;103048.56;;;5.43;80.88
63731;BME280;49747;51.334;6.830;2023-01-23T07:59:30;103062.44;;;5.54;80.41
63731;BME280;49747;51.334;6.830;2023-01-23T08:01:56;103055.78;;;5.27;81.89
63731;BME280;49747;51.334;6.830;2023-01-23T08:04:23;103058.34;;;5.33;81.89
63731;BME280;49747;51.334;6.830;2023-01-23T08:06:49;103059.78;;;5.56;81.12
63731;BME280;49747;51.334;6.830;2023-01-23T08:09:16;103062.28;;;5.65;80.53
63731;BME280;49747;51.334;6.830;2023-01-23T08:11:42;103047.31;;;5.68;80.65
63731;BME280;49747;51.334;6.830;2023-01-23T08:14:10;103050.78;;;5.72;80.82
63731;BME280;49747;51.334;6.830;2023-01-23T08:16:37;103055.94;;;5.80;80.69
63731;BME280;49747;51.334;6.830;2023-01-23T08:19:07;103044.94;;;5.49;81.49
63731;BME280;49747;51.334;6.830;2023-01-23T08:21:34;103047.00;;;5.28;82.57
63731;BME280;49747;51.334;6.830;2023-01-23T08:24:01;103039.97;;;5.26;83.37
63731;BME280;49747;51.334;6.830;2023-01-23T08:26:30;103046.09;;;5.29;83.11
63731;BME280;49747;51.334;6.830;2023-01-23T08:28:56;103049.25;;;5.56;81.68
63731;BME280;49747;51.334;6.830;2023-01-23T08:31:24;103042.34;;;5.47;82.32
63731;BME280;49747;51.334;6.830;2023-01-23T08:33:51;103042.47;;;5.36;82.60
63731;BME280;49747;51.334;6.830;2023-01-23T08:36:18;103048.91;;;5.15;83.69
63731;BME280;49747;51.334;6.830;2023-01-23T08:38:45;103049.81;;;5.13;83.60
63731;BME280;49747;51.334;6.830;2023-01-23T08:41:14;103057.50;;;5.30;83.34
63731;BME280;49747;51.334;6.830;2023-01-23T08:43:41;103060.19;;;5.27;83.39
63731;BME280;49747;51.334;6.830;2023-01-23T08:46:08;103066.81;;;5.57;82.02
63731;BME280;49747;51.334;6.830;2023-01-23T08:48:36;103064.94;;;5.66;81.82
63731;BME280;49747;51.334;6.830;2023-01-23T08:51:05;103057.16;;;5.54;81.89
63731;BME280;49747;51.334;6.830;2023-01-23T08:53:38;103064.25;;;5.52;81.72
63731;BME280;49747;51.334;6.830;2023-01-23T08:56:16;103067.63;;;5.60;81.21
63731;BME280;49747;51.334;6.830;2023-01-23T08:58:44;103072.28;;;5.41;82.40
63731;BME280;49747;51.334;6.830;2023-01-23T09:01:15;103064.94;;;5.65;81.58
63731;BME280;49747;51.334;6.830;2023-01-23T09:03:42;103071.06;;;5.67;81.03
63731;BME280;49747;51.334;6.830;2023-01-23T09:06:14;103072.84;;;5.66;81.54
63731;BME280;49747;51.334;6.830;2023-01-23T09:08:41;103069.41;;;5.58;80.84
63731;BME280;49747;51.334;6.830;2023-01-23T09:11:09;103075.41;;;5.71;81.06
63731;BME280;49747;51.334;6.830;2023-01-23T09:13:36;103085.91;;;5.73;80.60
63731;BME280;49747;51.334;6.830;2023-01-23T09:16:04;103079.22;;;5.49;81.13
63731;BME280;49747;51.334;6.830;2023-01-23T09:18:31;103083.75;;;5.39;81.39
63731;BME280;49747;51.334;6.830;2023-01-23T09:20:58;103077.50;;;5.48;81.15
63731;BME280;49747;51.334;6.830;2023-01-23T09:23:25;103079.19;;;5.52;80.94
63731;BME280;49747;51.334;6.830;2023-01-23T09:25:53;103073.16;;;5.42;81.55
63731;BME280;49747;51.334;6.830;2023-01-23T09:28:20;103081.94;;;5.44;81.28
63731;BME280;49747;51.334;6.830;2023-01-23T09:30:47;103090.47;;;5.61;81.35
63731;BME280;49747;51.334;6.830;2023-01-23T09:33:13;103075.63;;;5.54;80.09
63731;BME280;49747;51.334;6.830;2023-01-23T09:35:42;103088.88;;;5.51;80.34
63731;BME280;49747;51.334;6.830;2023-01-23T09:38:10;103081.97;;;5.41;80.51
63731;BME280;49747;51.334;6.830;2023-01-23T09:40:46;103084.53;;;5.47;80.79
63731;BME280;49747;51.334;6.830;2023-01-23T09:43:40;103095.19;;;5.36;81.72
63731;BME280;49747;51.334;6.830;2023-01-23T09:48:48;103097.66;;;5.50;80.10
63731;BME280;49747;51.334;6.830;2023-01-23T09:54:04;103094.75;;;5.70;78.10
63731;BME280;49747;51.334;6.830;2023-01-23T09:56:35;103100.94;;;5.67;78.00
63731;BME280;49747;51.334;6.830;2023-01-23T09:59:13;103100.00;;;5.70;77.77
63731;BME280;49747;51.334;6.830;2023-01-23T10:01:43;103106.16;;;5.72;77.76
63731;BME280;49747;51.334;6.830;2023-01-23T10:04:10;103103.25;;;5.90;77.28
63731;BME280;49747;51.334;6.830;2023-01-23T10:10:09;103096.25;;;5.88;76.77
63731;BME280;49747;51.334;6.830;2023-01-23T10:18:43;103098.13;;;5.78;77.11
63731;BME280;49747;51.334;6.830;2023-01-23T10:21:19;103104.16;;;5.88;77.39
63731;BME280;49747;51.334;6.830;2023-01-23T10:23:56;103101.44;;;5.96;77.54
63731;BME280;49747;51.334;6.830;2023-01-23T10:26:31;103094.53;;;5.85;76.55
63731;BME280;49747;51.334;6.830;2023-01-23T10:29:09;103101.53;;;5.88;77.01
63731;BME280;49747;51.334;6.830;2023-01-23T10:31:49;103097.75;;;6.06;76.49
63731;BME280;49747;51.334;6.830;2023-01-23T10:34:31;103088.25;;;5.96;77.04
63731;BME280;49747;51.334;6.830;2023-01-23T10:37:14;103086.38;;;6.04;76.24
63731;BME280;49747;51.334;6.830;2023-01-23T10:40:01;103093.97;;;6.24;75.39
63731;BME280;49747;51.334;6.830;2023-01-23T10:42:30;103101.31;;;6.05;75.64
63731;BME280;49747;51.334;6.830;2023-01-23T10:44:57;103104.13;;;5.92;76.44
63731;BME280;49747;51.334;6.830;2023-01-23T10:47:34;103099.16;;;5.69;76.68
63731;BME280;49747;51.334;6.830;2023-01-23T10:50:04;103100.97;;;5.64;77.07
63731;BME280;49747;51.334;6.830;2023-01-23T10:52:35;103101.81;;;5.68;76.89
63731;BME280;49747;51.334;6.830;2023-01-23T10:55:23;103101.59;;;5.82;77.20
63731;BME280;49747;51.334;6.830;2023-01-23T10:57:53;103114.75;;;5.85;77.08
63731;BME280;49747;51.334;6.830;2023-01-23T11:02:47;103102.00;;;5.54;77.33
63731;BME280;49747;51.334;6.830;2023-01-23T11:05:36;103102.81;;;5.58;76.65
63731;BME280;49747;51.334;6.830;2023-01-23T11:08:36;103095.78;;;5.58;77.67
63731;BME280;49747;51.334;6.830;2023-01-23T11:13:41;103098.53;;;5.51;78.05
63731;BME280;49747;51.334;6.830;2023-01-23T11:16:17;103094.81;;;5.65;77.46
63731;BME280;49747;51.334;6.830;2023-01-23T11:19:18;103092.78;;;5.84;76.29
63731;BME280;49747;51.334;6.830;2023-01-23T11:21:54;103097.47;;;5.64;76.82
63731;BME280;49747;51.334;6.830;2023-01-23T11:27:21;103086.06;;;5.62;77.18
63731;BME280;49747;51.334;6.830;2023-01-23T11:30:30;103088.66;;;5.65;76.53
63731;BME280;49747;51.334;6.830;2023-01-23T11:38:48;103086.03;;;5.65;76.13
63731;BME280;49747;51.334;6.830;2023-01-23T11:41:26;103066.91;;;5.51;76.18
63731;BME280;49747;51.334;6.830;2023-01-23T11:43:54;103081.41;;;5.81;77.30
63731;BME280;49747;51.334;6.830;2023-01-23T11:52:48;103090.06;;;5.90;73.85
63731;BME280;49747;51.334;6.830;2023-01-23T11:55:49;103090.03;;;5.93;74.21
63731;BME280;49747;51.334;6.830;2023-01-23T11:58:47;103087.25;;;6.04;74.25
63731;BME280;49747;51.334;6.830;2023-01-23T12:01:24;103090.47;;;6.22;73.66
63731;BME280;49747;51.334;6.830;2023-01-23T12:10:27;103082.13;;;6.48;70.79
63731;BME280;49747;51.334;6.830;2023-01-23T12:15:37;103068.75;;;6.57;69.88
63731;BME280;49747;51.334;6.830;2023-01-23T12:18:19;103080.81;;;6.72;69.97
63731;BME280;49747;51.334;6.830;2023-01-23T12:20:57;103078.63;;;6.47;69.57
63731;BME280;49747;51.334;6.830;2023-01-23T12:23:57;103071.22;;;6.66;68.43
63731;BME280;49747;51.334;6.830;2023-01-23T12:26:28;103079.16;;;6.64;68.67
63731;BME280;49747;51.334;6.830;2023-01-23T12:34:55;103078.50;;;6.53;68.39
63731;BME280;49747;51.334;6.830;2023-01-23T12:37:43;103078.31;;;6.64;69.10
63731;BME280;49747;51.334;6.830;2023-01-23T12:40:19;103085.38;;;6.62;68.68
63731;BME280;49747;51.334;6.830;2023-01-23T12:45:20;103092.03;;;6.33;68.22
63731;BME280;49747;51.334;6.830;2023-01-23T12:48:12;103093.94;;;6.27;68.82
63731;BME280;49747;51.334;6.830;2023-01-23T12:50:52;103072.94;;;6.17;69.41
63731;BME280;49747;51.334;6.830;2023-01-23T12:53:22;103080.75;;;6.25;68.86
63731;BME280;49747;51.334;6.830;2023-01-23T12:56:03;103083.16;;;6.37;68.62
63731;BME280;49747;51.334;6.830;2023-01-23T12:58:36;103075.66;;;6.13;68.04
63731;BME280;49747;51.334;6.830;2023-01-23T13:01:14;103076.31;;;6.26;68.66
63731;BME280;49747;51.334;6.830;2023-01-23T13:07:00;103082.03;;;6.52;68.52
63731;BME280;49747;51.334;6.830;2023-01-23T13:12:28;103084.06;;;6.36;68.57
63731;BME280;49747;51.334;6.830;2023-01-23T13:18:03;103082.50;;;6.25;68.93
63731;BME280;49747;51.334;6.830;2023-01-23T13:20:34;103082.41;;;6.31;69.39
63731;BME280;49747;51.334;6.830;2023-01-23T13:23:32;103080.00;;;6.17;69.59
63731;BME280;49747;51.334;6.830;2023-01-23T13:28:52;103076.56;;;6.12;70.31
63731;BME280;49747;51.334;6.830;2023-01-23T13:36:52;103080.66;;;6.30;70.41
63731;BME280;49747;51.334;6.830;2023-01-23T13:39:23;103082.00;;;6.03;70.79
63731;BME280;49747;51.334;6.830;2023-01-23T13:45:32;103080.41;;;6.45;69.64
63731;BME280;49747;51.334;6.830;2023-01-23T13:48:22;103083.13;;;6.40;69.76
63731;BME280;49747;51.334;6.830;2023-01-23T13:51:28;103082.28;;;6.38;68.93
63731;BME280;49747;51.334;6.830;2023-01-23T13:54:21;103080.34;;;6.48;68.44
63731;BME280;49747;51.334;6.830;2023-01-23T13:57:22;103082.25;;;6.40;69.40
63731;BME280;49747;51.334;6.830;2023-01-23T14:00:03;103079.00;;;6.24;69.16
63731;BME280;49747;51.334;6.830;2023-01-23T14:02:54;103083.63;;;6.10;70.09
63731;BME280;49747;51.334;6.830;2023-01-23T14:06:10;103087.78;;;6.25;70.17
63731;BME280;49747;51.334;6.830;2023-01-23T14:08:53;103097.91;;;6.51;69.43
63731;BME280;49747;51.334;6.830;2023-01-23T14:11:36;103090.75;;;6.57;69.13
63731;BME280;49747;51.334;6.830;2023-01-23T14:14:03;103096.09;;;6.54;69.98
63731;BME280;49747;51.334;6.830;2023-01-23T14:17:02;103086.56;;;8.13;100.00
63731;BME280;49747;51.334;6.830;2023-01-23T14:20:03;103087.44;;;7.76;74.72
63731;BME280;49747;51.334;6.830;2023-01-23T14:22:45;103089.94;;;7.44;69.25
63731;BME280;49747;51.334;6.830;2023-01-23T14:25:13;103092.59;;;7.00;69.84
63731;BME280;49747;51.334;6.830;2023-01-23T14:27:43;103098.06;;;6.89;69.80
63731;BME280;49747;51.334;6.830;2023-01-23T14:30:23;103086.88;;;6.77;70.17
63731;BME280;49747;51.334;6.830;2023-01-23T14:32:52;103094.13;;;6.65;70.20
63731;BME280;49747;51.334;6.830;2023-01-23T14:35:28;103103.38;;;6.40;70.76
63731;BME280;49747;51.334;6.830;2023-01-23T14:37:57;103103.34;;;6.41;70.84
63731;BME280;49747;51.334;6.830;2023-01-23T14:40:25;103104.19;;;6.44;70.48
63731;BME280;49747;51.334;6.830;2023-01-23T14:43:05;103107.91;;;6.32;70.76
63731;BME280;49747;51.334;6.830;2023-01-23T14:45:35;103096.69;;;6.17;70.80